sensor_id;sensor_type;location;lat;lon;timestamp;pressure;altitude;pressure_sealevel;temperature;humidity
13478;BME280;12598;62.382;17.344;2023-07-16T00:00:50;100789.16;;;28.18;34.89
13478;BME280;12598;62.382;17.344;2023-07-16T00:01:52;100785.38;;;28.19;34.84
13478;BME280;12598;62.382;17.344;2023-07-16T00:02:54;100786.44;;;28.18;34.68
13478;BME280;12598;62.382;17.344;2023-07-16T00:03:56;100793.75;;;28.17;34.86
13478;BME280;12598;62.382;17.344;2023-07-16T00:04:58;100782.88;;;28.17;34.74
13478;BME280;12598;62.382;17.344;2023-07-16T00:06:00;100782.03;;;28.17;34.87
13478;BME280;12598;62.382;17.344;2023-07-16T00:07:02;100781.19;;;28.16;35.10
13478;BME280;12598;62.382;17.344;2023-07-16T00:08:04;100774.09;;;28.15;34.54
13478;BME280;12598;62.382;17.344;2023-07-16T00:09:06;100774.09;;;28.15;34.98
13478;BME280;12598;62.382;17.344;2023-07-16T00:10:08;100775.13;;;28.14;35.02
13478;BME280;12598;62.382;17.344;2023-07-16T00:11:10;100766.97;;;28.14;34.81
13478;BME280;12598;62.382;17.344;2023-07-16T00:12:12;100769.94;;;28.13;35.22
13478;BME280;12598;62.382;17.344;2023-07-16T00:13:14;100768.03;;;28.13;34.92
13478;BME280;12598;62.382;17.344;2023-07-16T00:14:16;100769.94;;;28.13;34.59
13478;BME280;12598;62.382;17.344;2023-07-16T00:15:18;100768.44;;;28.10;35.22
13478;BME280;12598;62.382;17.344;2023-07-16T00:16:20;100762.81;;;28.12;35.20
13478;BME280;12598;62.382;17.344;2023-07-16T00:17:22;100755.72;;;28.11;35.19
13478;BME280;12598;62.382;17.344;2023-07-16T00:18:24;100753.63;;;28.06;35.37
13478;BME280;12598;62.382;17.344;2023-07-16T00:19:26;100743.97;;;28.04;35.37
13478;BME280;12598;62.382;17.344;2023-07-16T00:20:28;100761.16;;;28.11;35.24
13478;BME280;12598;62.382;17.344;2023-07-16T00:21:30;100754.03;;;28.10;35.21
13478;BME280;12598;62.382;17.344;2023-07-16T00:22:32;100752.38;;;28.09;35.09
13478;BME280;12598;62.382;17.344;2023-07-16T00:23:34;100753.41;;;28.08;35.23
13478;BME280;12598;62.382;17.344;2023-07-16T00:24:36;100753.41;;;28.08;35.11
13478;BME280;12598;62.382;17.344;2023-07-16T00:25:38;100750.91;;;28.06;35.03
13478;BME280;12598;62.382;17.344;2023-07-16T00:26:40;100750.69;;;28.08;35.28
13478;BME280;12598;62.382;17.344;2023-07-16T00:27:42;100754.47;;;28.07;35.37
13478;BME280;12598;62.382;17.344;2023-07-16T00:28:43;100748.19;;;28.06;35.20
13478;BME280;12598;62.382;17.344;2023-07-16T00:29:45;100759.91;;;28.07;35.23
13478;BME280;12598;62.382;17.344;2023-07-16T00:30:47;100747.38;;;27.99;35.38
13478;BME280;12598;62.382;17.344;2023-07-16T00:31:49;100755.28;;;28.01;35.10
13478;BME280;12598;62.382;17.344;2023-07-16T00:32:51;100763.63;;;28.06;35.26
13478;BME280;12598;62.382;17.344;2023-07-16T00:33:53;100766.34;;;28.06;35.26
13478;BME280;12598;62.382;17.344;2023-07-16T00:34:55;100763.00;;;28.04;35.24
13478;BME280;12598;62.382;17.344;2023-07-16T00:35:57;100760.28;;;28.04;35.28
13478;BME280;12598;62.382;17.344;2023-07-16T00:36:59;100758.63;;;28.03;35.42
13478;BME280;12598;62.382;17.344;2023-07-16T00:38:03;100754.84;;;28.04;35.15
13478;BME280;12598;62.382;17.344;2023-07-16T00:39:05;100743.97;;;28.04;35.46
13478;BME280;12598;62.382;17.344;2023-07-16T00:40:08;100746.94;;;28.02;35.46
13478;BME280;12598;62.382;17.344;2023-07-16T00:41:10;100737.31;;;28.00;35.33
13478;BME280;12598;62.382;17.344;2023-07-16T00:42:12;100741.50;;;28.02;35.45
13478;BME280;12598;62.382;17.344;2023-07-16T00:43:14;100744.41;;;28.01;35.25
13478;BME280;12598;62.382;17.344;2023-07-16T00:44:16;100735.25;;;27.95;35.15
13478;BME280;12598;62.382;17.344;2023-07-16T00:45:17;100749.03;;;28.00;35.24
13478;BME280;12598;62.382;17.344;2023-07-16T00:46:19;100748.19;;;28.00;35.49
13478;BME280;12598;62.382;17.344;2023-07-16T00:47:21;100738.16;;;27.94;35.37
13478;BME280;12598;62.382;17.344;2023-07-16T00:48:24;100743.78;;;27.99;35.49
13478;BME280;12598;62.382;17.344;2023-07-16T00:49:27;100744.84;;;27.98;35.33
13478;BME280;12598;62.382;17.344;2023-07-16T00:50:29;100718.75;;;27.84;35.58
13478;BME280;12598;62.382;17.344;2023-07-16T00:51:35;100742.75;;;28.00;35.63
13478;BME280;12598;62.382;17.344;2023-07-16T00:52:38;100740.25;;;27.98;35.38
13478;BME280;12598;62.382;17.344;2023-07-16T00:53:41;100721.03;;;27.87;35.29
13478;BME280;12598;62.382;17.344;2023-07-16T00:54:45;100730.19;;;27.99;35.47
13478;BME280;12598;62.382;17.344;2023-07-16T00:55:47;100728.75;;;27.96;35.37
13478;BME280;12598;62.382;17.344;2023-07-16T00:56:49;100724.13;;;27.97;35.57
13478;BME280;12598;62.382;17.344;2023-07-16T00:57:52;100719.75;;;27.96;35.52
13478;BME280;12598;62.382;17.344;2023-07-16T00:58:55;100714.53;;;27.94;35.47
13478;BME280;12598;62.382;17.344;2023-07-16T00:59:57;100707.22;;;27.95;35.49
13478;BME280;12598;62.382;17.344;2023-07-16T01:00:59;100710.97;;;27.94;35.26
13478;BME280;12598;62.382;17.344;2023-07-16T01:02:01;100709.94;;;27.95;35.68
13478;BME280;12598;62.382;17.344;2023-07-16T01:03:04;100712.25;;;27.91;35.61
13478;BME280;12598;62.382;17.344;2023-07-16T01:04:08;100711.59;;;27.96;35.28
13478;BME280;12598;62.382;17.344;2023-07-16T01:05:10;100707.44;;;27.93;35.57
13478;BME280;12598;62.382;17.344;2023-07-16T01:06:22;100707.44;;;27.93;35.42
13478;BME280;12598;62.382;17.344;2023-07-16T01:07:25;100708.88;;;27.96;35.40
13478;BME280;12598;62.382;17.344;2023-07-16T01:08:45;100714.75;;;27.99;35.40
13478;BME280;12598;62.382;17.344;2023-07-16T01:09:48;100706.78;;;27.98;35.21
13478;BME280;12598;62.382;17.344;2023-07-16T01:10:53;100699.69;;;27.97;35.26
13478;BME280;12598;62.382;17.344;2023-07-16T01:11:57;100696.56;;;27.93;35.25
13478;BME280;12598;62.382;17.344;2023-07-16T01:13:01;100687.38;;;27.94;35.47
13478;BME280;12598;62.382;17.344;2023-07-16T01:14:05;100692.19;;;27.92;35.22
13478;BME280;12598;62.382;17.344;2023-07-16T01:15:08;100685.91;;;27.92;35.42
13478;BME280;12598;62.382;17.344;2023-07-16T01:16:20;100680.47;;;27.92;35.21
13478;BME280;12598;62.382;17.344;2023-07-16T01:17:22;100682.97;;;27.93;35.30
13478;BME280;12598;62.382;17.344;2023-07-16T01:18:24;100684.84;;;27.93;35.09
13478;BME280;12598;62.382;17.344;2023-07-16T01:19:26;100683.16;;;27.92;35.04
13478;BME280;12598;62.382;17.344;2023-07-16T01:20:28;100654.19;;;27.73;34.99
13478;BME280;12598;62.382;17.344;2023-07-16T01:23:11;100685.03;;;27.98;34.93
13478;BME280;12598;62.382;17.344;2023-07-16T01:30:02;100681.25;;;27.99;34.86
13478;BME280;12598;62.382;17.344;2023-07-16T01:31:05;100685.47;;;27.95;34.82
13478;BME280;12598;62.382;17.344;2023-07-16T01:32:09;100681.50;;;27.91;34.73
13478;BME280;12598;62.382;17.344;2023-07-16T01:33:15;100676.50;;;27.88;34.81
13478;BME280;12598;62.382;17.344;2023-07-16T01:34:18;100673.16;;;27.86;35.13
13478;BME280;12598;62.382;17.344;2023-07-16T01:35:21;100680.69;;;27.84;35.11
13478;BME280;12598;62.382;17.344;2023-07-16T01:36:24;100686.13;;;27.84;35.03
13478;BME280;12598;62.382;17.344;2023-07-16T01:37:26;100682.78;;;27.82;35.10
13478;BME280;12598;62.382;17.344;2023-07-16T01:38:29;100681.94;;;27.81;35.16
13478;BME280;12598;62.382;17.344;2023-07-16T01:39:31;100684.88;;;27.80;35.08
13478;BME280;12598;62.382;17.344;2023-07-16T01:40:36;100686.56;;;27.81;35.07
13478;BME280;12598;62.382;17.344;2023-07-16T01:41:38;100688.41;;;27.80;35.09
13478;BME280;12598;62.382;17.344;2023-07-16T01:42:40;100676.53;;;27.75;35.14
13478;BME280;12598;62.382;17.344;2023-07-16T01:43:44;100682.16;;;27.80;35.04
13478;BME280;12598;62.382;17.344;2023-07-16T01:44:46;100685.94;;;27.79;35.19
13478;BME280;12598;62.382;17.344;2023-07-16T01:45:48;100685.09;;;27.78;35.10
13478;BME280;12598;62.382;17.344;2023-07-16T01:48:30;100674.63;;;27.88;35.02
13478;BME280;12598;62.382;17.344;2023-07-16T01:49:33;100663.97;;;27.87;34.72
13478;BME280;12598;62.382;17.344;2023-07-16T01:50:35;100663.75;;;27.82;34.88
13478;BME280;12598;62.382;17.344;2023-07-16T01:51:37;100663.16;;;27.80;35.01
13478;BME280;12598;62.382;17.344;2023-07-16T01:52:39;100668.78;;;27.78;34.82
13478;BME280;12598;62.382;17.344;2023-07-16T01:53:41;100659.81;;;27.78;34.93
13478;BME280;12598;62.382;17.344;2023-07-16T01:54:43;100661.69;;;27.77;35.03
13478;BME280;12598;62.382;17.344;2023-07-16T01:55:45;100647.09;;;27.72;35.17
13478;BME280;12598;62.382;17.344;2023-07-16T01:56:47;100645.41;;;27.71;34.95
13478;BME280;12598;62.382;17.344;2023-07-16T01:57:49;100651.22;;;27.74;34.76
13478;BME280;12598;62.382;17.344;2023-07-16T01:58:51;100649.38;;;27.75;35.17
13478;BME280;12598;62.382;17.344;2023-07-16T01:59:53;100661.28;;;27.74;35.12
13478;BME280;12598;62.382;17.344;2023-07-16T02:00:55;100646.84;;;27.73;35.24
13478;BME280;12598;62.382;17.344;2023-07-16T02:01:57;100642.03;;;27.69;35.22
13478;BME280;12598;62.382;17.344;2023-07-16T02:02:59;100648.75;;;27.73;35.08
13478;BME280;12598;62.382;17.344;2023-07-16T02:04:01;100639.53;;;27.67;35.22
13478;BME280;12598;62.382;17.344;2023-07-16T02:05:03;100647.09;;;27.72;34.98
13478;BME280;12598;62.382;17.344;2023-07-16T02:06:05;100645.19;;;27.72;35.04
13478;BME280;12598;62.382;17.344;2023-07-16T02:07:08;100629.69;;;27.66;35.22
13478;BME280;12598;62.382;17.344;2023-07-16T02:08:09;100646.03;;;27.73;35.08
13478;BME280;12598;62.382;17.344;2023-07-16T02:09:11;100641.66;;;27.72;34.96
13478;BME280;12598;62.382;17.344;2023-07-16T02:10:13;100634.94;;;27.68;35.16
13478;BME280;12598;62.382;17.344;2023-07-16T02:11:15;100638.06;;;27.71;35.30
13478;BME280;12598;62.382;17.344;2023-07-16T02:12:17;100639.31;;;27.69;35.05
13478;BME280;12598;62.382;17.344;2023-07-16T02:13:19;100642.88;;;27.69;35.02
13478;BME280;12598;62.382;17.344;2023-07-16T02:14:21;100635.59;;;27.70;35.00
13478;BME280;12598;62.382;17.344;2023-07-16T02:15:23;100638.31;;;27.70;34.90
13478;BME280;12598;62.382;17.344;2023-07-16T02:16:25;100638.31;;;27.70;34.79
13478;BME280;12598;62.382;17.344;2023-07-16T02:17:28;100639.13;;;27.70;34.90
13478;BME280;12598;62.382;17.344;2023-07-16T02:18:30;100636.59;;;27.69;34.95
13478;BME280;12598;62.382;17.344;2023-07-16T02:19:32;100636.59;;;27.69;35.03
13478;BME280;12598;62.382;17.344;2023-07-16T02:20:34;100626.78;;;27.68;34.93
13478;BME280;12598;62.382;17.344;2023-07-16T02:21:36;100633.88;;;27.69;34.83
13478;BME280;12598;62.382;17.344;2023-07-16T02:22:38;100635.75;;;27.68;34.87
13478;BME280;12598;62.382;17.344;2023-07-16T02:23:40;100628.66;;;27.67;34.96
13478;BME280;12598;62.382;17.344;2023-07-16T02:24:42;100624.06;;;27.68;34.81
13478;BME280;12598;62.382;17.344;2023-07-16T02:25:43;100613.19;;;27.68;34.95
13478;BME280;12598;62.382;17.344;2023-07-16T02:26:45;100612.56;;;27.66;34.90
13478;BME280;12598;62.382;17.344;2023-07-16T02:27:47;100621.56;;;27.66;35.22
13478;BME280;12598;62.382;17.344;2023-07-16T02:28:49;100614.25;;;27.67;34.91
13478;BME280;12598;62.382;17.344;2023-07-16T02:29:51;100616.97;;;27.67;34.52
13478;BME280;12598;62.382;17.344;2023-07-16T02:30:53;100616.13;;;27.66;34.84
13478;BME280;12598;62.382;17.344;2023-07-16T02:31:55;100618.63;;;27.68;34.78
13478;BME280;12598;62.382;17.344;2023-07-16T02:32:57;100609.88;;;27.66;34.85
13478;BME280;12598;62.382;17.344;2023-07-16T02:34:00;100604.44;;;27.66;34.98
13478;BME280;12598;62.382;17.344;2023-07-16T02:35:02;100607.16;;;27.66;34.71
13478;BME280;12598;62.382;17.344;2023-07-16T02:36:04;100602.75;;;27.65;34.70
13478;BME280;12598;62.382;17.344;2023-07-16T02:37:07;100597.94;;;27.67;35.00
13478;BME280;12598;62.382;17.344;2023-07-16T02:38:10;100608.19;;;27.65;34.82
13478;BME280;12598;62.382;17.344;2023-07-16T02:39:11;100595.63;;;27.64;34.59
13478;BME280;12598;62.382;17.344;2023-07-16T02:40:14;100600.03;;;27.65;34.83
13478;BME280;12598;62.382;17.344;2023-07-16T02:41:16;100595.63;;;27.64;34.71
13478;BME280;12598;62.382;17.344;2023-07-16T02:42:18;100598.34;;;27.64;34.69
13478;BME280;12598;62.382;17.344;2023-07-16T02:43:20;100602.75;;;27.65;34.57
13478;BME280;12598;62.382;17.344;2023-07-16T02:44:22;100591.25;;;27.63;34.79
13478;BME280;12598;62.382;17.344;2023-07-16T02:45:24;100600.84;;;27.65;34.66
13478;BME280;12598;62.382;17.344;2023-07-16T02:46:25;100601.06;;;27.64;34.72
13478;BME280;12598;62.382;17.344;2023-07-16T02:47:29;100594.59;;;27.65;34.61
13478;BME280;12598;62.382;17.344;2023-07-16T02:48:31;100591.03;;;27.64;34.70
13478;BME280;12598;62.382;17.344;2023-07-16T02:49:32;100593.97;;;27.63;34.34
13478;BME280;12598;62.382;17.344;2023-07-16T02:50:35;100581.66;;;27.60;34.76
13478;BME280;12598;62.382;17.344;2023-07-16T02:51:37;100586.66;;;27.63;34.52
13478;BME280;12598;62.382;17.344;2023-07-16T02:52:39;100585.81;;;27.63;34.80
13478;BME280;12598;62.382;17.344;2023-07-16T02:53:41;100577.69;;;27.56;34.84
13478;BME280;12598;62.382;17.344;2023-07-16T02:54:43;100586.66;;;27.63;34.80
13478;BME280;12598;62.382;17.344;2023-07-16T02:55:45;100592.09;;;27.63;34.74
13478;BME280;12598;62.382;17.344;2023-07-16T02:56:48;100590.19;;;27.64;34.82
13478;BME280;12598;62.382;17.344;2023-07-16T02:57:50;100583.09;;;27.63;34.56
13478;BME280;12598;62.382;17.344;2023-07-16T02:58:52;100583.09;;;27.63;34.51
13478;BME280;12598;62.382;17.344;2023-07-16T02:59:54;100576.00;;;27.62;34.68
13478;BME280;12598;62.382;17.344;2023-07-16T03:00:56;100586.84;;;27.62;34.61
13478;BME280;12598;62.382;17.344;2023-07-16T03:01:58;100582.47;;;27.61;34.74
13478;BME280;12598;62.382;17.344;2023-07-16T03:03:00;100590.63;;;27.61;34.61
13478;BME280;12598;62.382;17.344;2023-07-16T03:04:02;100584.13;;;27.62;34.54
13478;BME280;12598;62.382;17.344;2023-07-16T03:05:04;100585.81;;;27.63;34.69
13478;BME280;12598;62.382;17.344;2023-07-16T03:06:08;100587.72;;;27.62;34.79
13478;BME280;12598;62.382;17.344;2023-07-16T03:07:10;100585.00;;;27.62;34.48
13478;BME280;12598;62.382;17.344;2023-07-16T03:08:12;100586.03;;;27.61;34.72
13478;BME280;12598;62.382;17.344;2023-07-16T03:09:14;100575.19;;;27.55;34.51
13478;BME280;12598;62.382;17.344;2023-07-16T03:10:16;100578.09;;;27.60;34.80
13478;BME280;12598;62.382;17.344;2023-07-16T03:11:18;100564.13;;;27.50;34.79
13478;BME280;12598;62.382;17.344;2023-07-16T03:12:20;100578.09;;;27.60;34.60
13478;BME280;12598;62.382;17.344;2023-07-16T03:13:22;100585.19;;;27.61;34.71
13478;BME280;12598;62.382;17.344;2023-07-16T03:14:24;100577.03;;;27.61;34.61
13478;BME280;12598;62.382;17.344;2023-07-16T03:15:25;100570.78;;;27.60;34.79
13478;BME280;12598;62.382;17.344;2023-07-16T03:16:27;100584.38;;;27.60;34.55
13478;BME280;12598;62.382;17.344;2023-07-16T03:17:29;100571.00;;;27.59;34.51
13478;BME280;12598;62.382;17.344;2023-07-16T03:18:32;100563.69;;;27.53;34.64
13478;BME280;12598;62.382;17.344;2023-07-16T03:19:34;100566.41;;;27.59;34.54
13478;BME280;12598;62.382;17.344;2023-07-16T03:20:36;100571.00;;;27.59;34.60
13478;BME280;12598;62.382;17.344;2023-07-16T03:21:38;100571.00;;;27.59;34.56
13478;BME280;12598;62.382;17.344;2023-07-16T03:22:40;100574.56;;;27.59;34.75
13478;BME280;12598;62.382;17.344;2023-07-16T03:23:43;100571.84;;;27.59;34.64
13478;BME280;12598;62.382;17.344;2023-07-16T03:24:45;100571.84;;;27.59;34.61
13478;BME280;12598;62.382;17.344;2023-07-16T03:25:47;100563.50;;;27.54;34.42
13478;BME280;12598;62.382;17.344;2023-07-16T03:26:49;100571.00;;;27.59;34.43
13478;BME280;12598;62.382;17.344;2023-07-16T03:27:54;100578.09;;;27.60;34.64
13478;BME280;12598;62.382;17.344;2023-07-16T03:28:56;100569.13;;;27.59;34.70
13478;BME280;12598;62.382;17.344;2023-07-16T03:29:58;100571.00;;;27.59;34.43
13478;BME280;12598;62.382;17.344;2023-07-16T03:31:01;100572.88;;;27.58;34.46
13478;BME280;12598;62.382;17.344;2023-07-16T03:32:04;100576.66;;;27.57;34.56
13478;BME280;12598;62.382;17.344;2023-07-16T03:33:06;100572.88;;;27.58;34.46
13478;BME280;12598;62.382;17.344;2023-07-16T03:34:09;100572.03;;;27.58;34.45
13478;BME280;12598;62.382;17.344;2023-07-16T03:35:11;100573.09;;;27.57;34.43
13478;BME280;12598;62.382;17.344;2023-07-16T03:36:13;100567.66;;;27.57;34.52
13478;BME280;12598;62.382;17.344;2023-07-16T03:37:16;100573.94;;;27.57;35.07
13478;BME280;12598;62.382;17.344;2023-07-16T03:38:18;100577.69;;;27.56;34.71
13478;BME280;12598;62.382;17.344;2023-07-16T03:39:20;100574.56;;;27.53;34.68
13478;BME280;12598;62.382;17.344;2023-07-16T03:40:24;100575.84;;;27.50;34.76
13478;BME280;12598;62.382;17.344;2023-07-16T03:41:27;100589.38;;;27.57;34.62
13478;BME280;12598;62.382;17.344;2023-07-16T03:42:29;100594.00;;;27.56;34.50
13478;BME280;12598;62.382;17.344;2023-07-16T03:43:31;100587.72;;;27.56;34.42
13478;BME280;12598;62.382;17.344;2023-07-16T03:44:44;100581.47;;;27.55;34.64
13478;BME280;12598;62.382;17.344;2023-07-16T03:45:46;100586.66;;;27.57;34.62
13478;BME280;12598;62.382;17.344;2023-07-16T03:46:48;100591.28;;;27.56;34.68
13478;BME280;12598;62.382;17.344;2023-07-16T03:47:50;100587.72;;;27.56;34.63
13478;BME280;12598;62.382;17.344;2023-07-16T03:48:53;100580.63;;;27.55;34.53
13478;BME280;12598;62.382;17.344;2023-07-16T03:49:55;100570.19;;;27.52;34.45
13478;BME280;12598;62.382;17.344;2023-07-16T03:50:57;100575.19;;;27.55;34.63
13478;BME280;12598;62.382;17.344;2023-07-16T03:51:58;100559.13;;;27.47;34.49
13478;BME280;12598;62.382;17.344;2023-07-16T03:53:01;100570.78;;;27.54;34.43
13478;BME280;12598;62.382;17.344;2023-07-16T03:54:04;100574.38;;;27.54;34.76
13478;BME280;12598;62.382;17.344;2023-07-16T03:55:07;100577.06;;;27.54;34.68
13478;BME280;12598;62.382;17.344;2023-07-16T03:56:09;100568.09;;;27.54;34.49
13478;BME280;12598;62.382;17.344;2023-07-16T03:57:11;100564.53;;;27.53;34.83
13478;BME280;12598;62.382;17.344;2023-07-16T03:58:13;100573.50;;;27.54;34.53
13478;BME280;12598;62.382;17.344;2023-07-16T03:59:15;100562.88;;;27.52;34.64
13478;BME280;12598;62.382;17.344;2023-07-16T04:00:17;100567.25;;;27.53;34.72
13478;BME280;12598;62.382;17.344;2023-07-16T04:01:23;100568.09;;;27.54;34.55
13478;BME280;12598;62.382;17.344;2023-07-16T04:02:25;100565.38;;;27.54;35.01
13478;BME280;12598;62.382;17.344;2023-07-16T04:03:27;100564.53;;;27.53;34.60
13478;BME280;12598;62.382;17.344;2023-07-16T04:04:29;100551.81;;;27.47;34.56
13478;BME280;12598;62.382;17.344;2023-07-16T04:05:31;100553.06;;;27.51;34.84
13478;BME280;12598;62.382;17.344;2023-07-16T04:06:33;100551.16;;;27.52;34.60
13478;BME280;12598;62.382;17.344;2023-07-16T04:07:35;100540.09;;;27.47;34.71
13478;BME280;12598;62.382;17.344;2023-07-16T04:08:37;100553.88;;;27.52;34.73
13478;BME280;12598;62.382;17.344;2023-07-16T04:09:39;100549.28;;;27.52;34.64
13478;BME280;12598;62.382;17.344;2023-07-16T04:10:41;100546.78;;;27.51;34.85
13478;BME280;12598;62.382;17.344;2023-07-16T04:11:43;100541.34;;;27.51;34.66
13478;BME280;12598;62.382;17.344;2023-07-16T04:12:45;100546.78;;;27.51;34.93
13478;BME280;12598;62.382;17.344;2023-07-16T04:13:47;100547.81;;;27.50;34.81
13478;BME280;12598;62.382;17.344;2023-07-16T04:14:51;100558.50;;;27.51;34.92
13478;BME280;12598;62.382;17.344;2023-07-16T04:15:53;100555.78;;;27.51;34.91
13478;BME280;12598;62.382;17.344;2023-07-16T04:16:56;100555.97;;;27.50;34.73
13478;BME280;12598;62.382;17.344;2023-07-16T04:17:58;100545.72;;;27.52;34.80
13478;BME280;12598;62.382;17.344;2023-07-16T04:19:00;100547.81;;;27.50;34.87
13478;BME280;12598;62.382;17.344;2023-07-16T04:20:02;100550.34;;;27.51;35.23
13478;BME280;12598;62.382;17.344;2023-07-16T04:21:04;100555.97;;;27.50;34.98
13478;BME280;12598;62.382;17.344;2023-07-16T04:22:06;100531.78;;;27.42;34.92
13478;BME280;12598;62.382;17.344;2023-07-16T04:23:08;100541.78;;;27.48;35.08
13478;BME280;12598;62.382;17.344;2023-07-16T04:24:10;100534.25;;;27.50;34.95
13478;BME280;12598;62.382;17.344;2023-07-16T04:25:12;100534.25;;;27.50;35.02
13478;BME280;12598;62.382;17.344;2023-07-16T04:26:15;100521.09;;;27.47;35.12
13478;BME280;12598;62.382;17.344;2023-07-16T04:27:17;100540.53;;;27.50;35.13
13478;BME280;12598;62.382;17.344;2023-07-16T04:28:19;100544.28;;;27.49;35.31
13478;BME280;12598;62.382;17.344;2023-07-16T04:29:21;100542.41;;;27.50;35.14
13478;BME280;12598;62.382;17.344;2023-07-16T04:30:23;100537.19;;;27.48;35.08
13478;BME280;12598;62.382;17.344;2023-07-16T04:31:25;100531.75;;;27.48;35.03
13478;BME280;12598;62.382;17.344;2023-07-16T04:32:27;100522.75;;;27.48;35.27
13478;BME280;12598;62.382;17.344;2023-07-16T04:33:29;100535.28;;;27.49;35.35
13478;BME280;12598;62.382;17.344;2023-07-16T04:34:31;100520.06;;;27.48;34.90
13478;BME280;12598;62.382;17.344;2023-07-16T04:35:33;100524.66;;;27.47;34.94
13478;BME280;12598;62.382;17.344;2023-07-16T04:36:35;100515.47;;;27.48;35.13
13478;BME280;12598;62.382;17.344;2023-07-16T04:37:37;100511.91;;;27.48;35.30
13478;BME280;12598;62.382;17.344;2023-07-16T04:38:39;100510.03;;;27.48;35.35
13478;BME280;12598;62.382;17.344;2023-07-16T04:39:41;100507.50;;;27.47;35.63
13478;BME280;12598;62.382;17.344;2023-07-16T04:40:43;100499.97;;;27.49;35.35
13478;BME280;12598;62.382;17.344;2023-07-16T04:41:45;100498.31;;;27.48;35.36
13478;BME280;12598;62.382;17.344;2023-07-16T04:42:47;100495.22;;;27.44;35.48
13478;BME280;12598;62.382;17.344;2023-07-16T04:43:48;100490.16;;;27.48;35.37
13478;BME280;12598;62.382;17.344;2023-07-16T04:44:50;100493.75;;;27.48;35.20
13478;BME280;12598;62.382;17.344;2023-07-16T04:45:52;100495.59;;;27.48;35.26
13478;BME280;12598;62.382;17.344;2023-07-16T04:46:54;100472.03;;;27.42;35.53
13478;BME280;12598;62.382;17.344;2023-07-16T04:47:56;100491.22;;;27.47;35.36
13478;BME280;12598;62.382;17.344;2023-07-16T04:48:58;100491.22;;;27.47;35.32
13478;BME280;12598;62.382;17.344;2023-07-16T04:50:00;100492.06;;;27.47;35.43
13478;BME280;12598;62.382;17.344;2023-07-16T04:51:02;100484.75;;;27.48;35.19
13478;BME280;12598;62.382;17.344;2023-07-16T04:52:04;100471.41;;;27.40;35.50
13478;BME280;12598;62.382;17.344;2023-07-16T04:53:06;100476.41;;;27.43;35.45
13478;BME280;12598;62.382;17.344;2023-07-16T04:54:08;100477.63;;;27.47;35.25
13478;BME280;12598;62.382;17.344;2023-07-16T04:55:10;100469.09;;;27.43;35.31
13478;BME280;12598;62.382;17.344;2023-07-16T04:56:14;100471.38;;;27.46;35.23
13478;BME280;12598;62.382;17.344;2023-07-16T04:57:17;100475.78;;;27.47;35.10
13478;BME280;12598;62.382;17.344;2023-07-16T04:58:22;100471.16;;;27.48;35.28
13478;BME280;12598;62.382;17.344;2023-07-16T04:59:24;100471.16;;;27.48;35.32
13478;BME280;12598;62.382;17.344;2023-07-16T05:00:26;100459.25;;;27.42;35.46
13478;BME280;12598;62.382;17.344;2023-07-16T05:01:28;100464.91;;;27.47;35.32
13478;BME280;12598;62.382;17.344;2023-07-16T05:02:29;100464.06;;;27.47;35.52
13478;BME280;12598;62.382;17.344;2023-07-16T05:03:31;100458.63;;;27.47;35.53
13478;BME280;12598;62.382;17.344;2023-07-16T05:04:34;100451.53;;;27.46;35.53
13478;BME280;12598;62.382;17.344;2023-07-16T05:05:36;100449.66;;;27.46;35.51
13478;BME280;12598;62.382;17.344;2023-07-16T05:06:38;100453.44;;;27.45;35.59
13478;BME280;12598;62.382;17.344;2023-07-16T05:07:40;100441.72;;;27.45;35.59
13478;BME280;12598;62.382;17.344;2023-07-16T05:08:42;100443.38;;;27.46;35.49
13478;BME280;12598;62.382;17.344;2023-07-16T05:09:47;100445.06;;;27.47;35.60
13478;BME280;12598;62.382;17.344;2023-07-16T05:10:49;100448.00;;;27.45;35.25
13478;BME280;12598;62.382;17.344;2023-07-16T05:11:51;100439.84;;;27.45;35.63
13478;BME280;12598;62.382;17.344;2023-07-16T05:12:53;100439.00;;;27.45;35.66
13478;BME280;12598;62.382;17.344;2023-07-16T05:13:55;100444.44;;;27.45;35.85
13478;BME280;12598;62.382;17.344;2023-07-16T05:14:57;100443.19;;;27.41;35.99
13478;BME280;12598;62.382;17.344;2023-07-16T05:15:59;100444.66;;;27.43;35.98
13478;BME280;12598;62.382;17.344;2023-07-16T05:17:01;100445.47;;;27.44;35.86
13478;BME280;12598;62.382;17.344;2023-07-16T05:18:03;100442.34;;;27.40;36.06
13478;BME280;12598;62.382;17.344;2023-07-16T05:19:05;100447.38;;;27.43;35.87
13478;BME280;12598;62.382;17.344;2023-07-16T05:20:08;100433.59;;;27.38;35.95
13478;BME280;12598;62.382;17.344;2023-07-16T05:21:11;100442.34;;;27.40;36.24
13478;BME280;12598;62.382;17.344;2023-07-16T05:22:12;100438.81;;;27.40;36.25
13478;BME280;12598;62.382;17.344;2023-07-16T05:23:15;100441.94;;;27.43;36.32
13478;BME280;12598;62.382;17.344;2023-07-16T05:24:17;100443.81;;;27.43;36.11
13478;BME280;12598;62.382;17.344;2023-07-16T05:25:18;100449.25;;;27.43;36.29
13478;BME280;12598;62.382;17.344;2023-07-16T05:26:20;100445.69;;;27.42;36.12
13478;BME280;12598;62.382;17.344;2023-07-16T05:27:22;100451.97;;;27.43;35.85
13478;BME280;12598;62.382;17.344;2023-07-16T05:28:24;100448.00;;;27.39;36.40
13478;BME280;12598;62.382;17.344;2023-07-16T05:29:26;100450.28;;;27.42;36.17
13478;BME280;12598;62.382;17.344;2023-07-16T05:30:28;100436.53;;;27.37;36.18
13478;BME280;12598;62.382;17.344;2023-07-16T05:31:30;100452.41;;;27.40;36.22